sensor_id;sensor_type;location;lat;lon;timestamp;temperature;humidity
50067;DHT22;35952;52.524;13.340;2022-07-23T00:02:06;20.10;99.90
50067;DHT22;35952;52.524;13.340;2022-07-23T00:04:33;20.20;99.90
50067;DHT22;35952;52.524;13.340;2022-07-23T00:06:58;20.20;99.90
50067;DHT22;35952;52.524;13.340;2022-07-23T00:09:24;19.90;99.90
50067;DHT22;35952;52.524;13.340;2022-07-23T00:11:50;19.90;99.90
50067;DHT22;35952;52.524;13.340;2022-07-23T00:14:15;19.80;99.90
50067;DHT22;35952;52.524;13.340;2022-07-23T00:16:41;19.70;99.90
50067;DHT22;35952;52.524;13.340;2022-07-23T00:19:06;19.80;99.90
50067;DHT22;35952;52.524;13.340;2022-07-23T00:21:32;19.90;99.90
50067;DHT22;35952;52.524;13.340;2022-07-23T00:23:57;19.80;99.90
50067;DHT22;35952;52.524;13.340;2022-07-23T00:26:23;19.70;99.90
50067;DHT22;35952;52.524;13.340;2022-07-23T00:28:48;19.60;99.90
50067;DHT22;35952;52.524;13.340;2022-07-23T00:31:14;19.60;99.90
50067;DHT22;35952;52.524;13.340;2022-07-23T00:33:39;19.70;99.90
50067;DHT22;35952;52.524;13.340;2022-07-23T00:36:05;19.80;99.90
50067;DHT22;35952;52.524;13.340;2022-07-23T00:38:31;19.70;99.90
50067;DHT22;35952;52.524;13.340;2022-07-23T00:40:56;19.70;99.90
50067;DHT22;35952;52.524;13.340;2022-07-23T00:43:23;19.70;99.90
50067;DHT22;35952;52.524;13.340;2022-07-23T00:45:49;19.70;99.90
50067;DHT22;35952;52.524;13.340;2022-07-23T00:48:14;19.60;99.90
50067;DHT22;35952;52.524;13.340;2022-07-23T00:50:40;19.50;99.90
50067;DHT22;35952;52.524;13.340;2022-07-23T00:53:05;19.50;99.90
50067;DHT22;35952;52.524;13.340;2022-07-23T00:55:32;19.50;99.90
50067;DHT22;35952;52.524;13.340;2022-07-23T00:57:58;19.50;99.90
50067;DHT22;35952;52.524;13.340;2022-07-23T01:00:24;19.60;99.90
50067;DHT22;35952;52.524;13.340;2022-07-23T01:02:49;19.70;99.90
50067;DHT22;35952;52.524;13.340;2022-07-23T01:05:15;19.60;99.90
50067;DHT22;35952;52.524;13.340;2022-07-23T01:07:42;19.50;99.90
50067;DHT22;35952;52.524;13.340;2022-07-23T01:10:08;19.40;99.90
50067;DHT22;35952;52.524;13.340;2022-07-23T01:12:54;19.30;99.90
50067;DHT22;35952;52.524;13.340;2022-07-23T01:15:20;19.30;99.90
50067;DHT22;35952;52.524;13.340;2022-07-23T01:17:45;19.30;99.90
50067;DHT22;35952;52.524;13.340;2022-07-23T01:20:11;19.20;99.90
50067;DHT22;35952;52.524;13.340;2022-07-23T01:22:36;19.30;99.90
50067;DHT22;35952;52.524;13.340;2022-07-23T01:25:02;19.20;99.90
50067;DHT22;35952;52.524;13.340;2022-07-23T01:27:27;19.10;99.90
50067;DHT22;35952;52.524;13.340;2022-07-23T01:29:54;19.10;99.90
50067;DHT22;35952;52.524;13.340;2022-07-23T01:32:20;19.10;99.90
50067;DHT22;35952;52.524;13.340;2022-07-23T01:34:45;19.00;99.90
50067;DHT22;35952;52.524;13.340;2022-07-23T01:37:11;19.10;99.90
50067;DHT22;35952;52.524;13.340;2022-07-23T01:39:36;19.00;99.90
50067;DHT22;35952;52.524;13.340;2022-07-23T01:42:02;19.00;99.90
50067;DHT22;35952;52.524;13.340;2022-07-23T01:44:28;18.90;99.90
50067;DHT22;35952;52.524;13.340;2022-07-23T01:46:53;19.00;99.90
50067;DHT22;35952;52.524;13.340;2022-07-23T01:49:20;18.80;99.90
50067;DHT22;35952;52.524;13.340;2022-07-23T01:51:45;18.90;99.90
50067;DHT22;35952;52.524;13.340;2022-07-23T01:54:31;18.80;99.90
50067;DHT22;35952;52.524;13.340;2022-07-23T01:56:57;18.70;99.90
50067;DHT22;35952;52.524;13.340;2022-07-23T01:59:23;18.70;99.90
50067;DHT22;35952;52.524;13.340;2022-07-23T02:01:49;18.70;99.90
50067;DHT22;35952;52.524;13.340;2022-07-23T02:04:19;18.80;99.90
50067;DHT22;35952;52.524;13.340;2022-07-23T02:06:45;18.70;99.90
50067;DHT22;35952;52.524;13.340;2022-07-23T02:09:10;18.70;99.90
50067;DHT22;35952;52.524;13.340;2022-07-23T02:11:36;18.70;99.90
50067;DHT22;35952;52.524;13.340;2022-07-23T02:14:02;18.70;99.90
50067;DHT22;35952;52.524;13.340;2022-07-23T02:16:27;18.70;99.90
50067;DHT22;35952;52.524;13.340;2022-07-23T02:18:53;18.60;99.90
50067;DHT22;35952;52.524;13.340;2022-07-23T02:21:18;18.70;99.90
50067;DHT22;35952;52.524;13.340;2022-07-23T02:23:44;18.60;99.90
50067;DHT22;35952;52.524;13.340;2022-07-23T02:26:09;18.60;99.90
50067;DHT22;35952;52.524;13.340;2022-07-23T02:28:35;18.60;99.90
50067;DHT22;35952;52.524;13.340;2022-07-23T02:31:00;18.60;99.90
50067;DHT22;35952;52.524;13.340;2022-07-23T02:33:26;18.60;99.90
50067;DHT22;35952;52.524;13.340;2022-07-23T02:35:51;18.60;99.90
50067;DHT22;35952;52.524;13.340;2022-07-23T02:38:17;18.70;99.90
50067;DHT22;35952;52.524;13.340;2022-07-23T02:40:43;18.60;99.90
50067;DHT22;35952;52.524;13.340;2022-07-23T02:43:08;18.70;99.90
50067;DHT22;35952;52.524;13.340;2022-07-23T02:45:34;18.70;99.90
50067;DHT22;35952;52.524;13.340;2022-07-23T02:47:59;18.60;99.90
50067;DHT22;35952;52.524;13.340;2022-07-23T02:50:24;18.50;99.90
50067;DHT22;35952;52.524;13.340;2022-07-23T02:52:50;18.50;99.90
50067;DHT22;35952;52.524;13.340;2022-07-23T02:55:15;18.50;99.90
50067;DHT22;35952;52.524;13.340;2022-07-23T02:57:41;18.40;99.90
50067;DHT22;35952;52.524;13.340;2022-07-23T03:00:07;18.40;99.90
50067;DHT22;35952;52.524;13.340;2022-07-23T03:02:33;18.40;99.90
50067;DHT22;35952;52.524;13.340;2022-07-23T03:04:58;18.40;99.90
50067;DHT22;35952;52.524;13.340;2022-07-23T03:07:24;18.30;99.90
50067;DHT22;35952;52.524;13.340;2022-07-23T03:09:49;18.30;99.90
50067;DHT22;35952;52.524;13.340;2022-07-23T03:12:15;18.30;99.90
50067;DHT22;35952;52.524;13.340;2022-07-23T03:14:41;18.40;99.90
50067;DHT22;35952;52.524;13.340;2022-07-23T03:17:07;18.50;99.90
50067;DHT22;35952;52.524;13.340;2022-07-23T03:19:32;18.50;99.90
50067;DHT22;35952;52.524;13.340;2022-07-23T03:21:58;18.50;99.90
50067;DHT22;35952;52.524;13.340;2022-07-23T03:24:23;18.40;99.90
50067;DHT22;35952;52.524;13.340;2022-07-23T03:27:09;18.30;99.90
50067;DHT22;35952;52.524;13.340;2022-07-23T03:29:34;18.10;99.90
50067;DHT22;35952;52.524;13.340;2022-07-23T03:32:03;18.10;99.90
50067;DHT22;35952;52.524;13.340;2022-07-23T03:34:28;18.10;99.90
50067;DHT22;35952;52.524;13.340;2022-07-23T03:36:54;18.10;99.90
50067;DHT22;35952;52.524;13.340;2022-07-23T03:39:19;18.10;99.90
50067;DHT22;35952;52.524;13.340;2022-07-23T03:41:45;18.10;99.90
50067;DHT22;35952;52.524;13.340;2022-07-23T03:44:10;18.10;99.90
50067;DHT22;35952;52.524;13.340;2022-07-23T03:46:36;18.10;99.90
50067;DHT22;35952;52.524;13.340;2022-07-23T03:49:01;18.10;99.90
50067;DHT22;35952;52.524;13.340;2022-07-23T03:51:27;18.20;99.90
50067;DHT22;35952;52.524;13.340;2022-07-23T03:53:52;18.20;99.90
50067;DHT22;35952;52.524;13.340;2022-07-23T03:56:18;18.10;99.90
50067;DHT22;35952;52.524;13.340;2022-07-23T03:58:43;18.20;99.90
50067;DHT22;35952;52.524;13.340;2022-07-23T04:01:09;18.10;99.90
50067;DHT22;35952;52.524;13.340;2022-07-23T04:03:35;18.10;99.90
50067;DHT22;35952;52.524;13.340;2022-07-23T04:06:01;18.10;99.90
50067;DHT22;35952;52.524;13.340;2022-07-23T04:08:26;18.10;99.90
50067;DHT22;35952;52.524;13.340;2022-07-23T04:10:52;18.10;99.90
50067;DHT22;35952;52.524;13.340;2022-07-23T04:13:18;18.10;99.90
50067;DHT22;35952;52.524;13.340;2022-07-23T04:15:44;18.20;99.90
50067;DHT22;35952;52.524;13.340;2022-07-23T04:18:09;18.30;99.90
50067;DHT22;35952;52.524;13.340;2022-07-23T04:20:35;18.20;99.90
50067;DHT22;35952;52.524;13.340;2022-07-23T04:23:00;18.10;99.90
50067;DHT22;35952;52.524;13.340;2022-07-23T04:25:26;18.10;99.90
50067;DHT22;35952;52.524;13.340;2022-07-23T04:27:51;18.10;99.90
50067;DHT22;35952;52.524;13.340;2022-07-23T04:30:17;18.10;99.90
50067;DHT22;35952;52.524;13.340;2022-07-23T04:32:43;18.20;99.90
50067;DHT22;35952;52.524;13.340;2022-07-23T04:35:08;18.30;99.90
50067;DHT22;35952;52.524;13.340;2022-07-23T04:37:34;18.20;99.90
50067;DHT22;35952;52.524;13.340;2022-07-23T04:39:59;18.00;99.90
50067;DHT22;35952;52.524;13.340;2022-07-23T04:42:25;17.70;99.90
50067;DHT22;35952;52.524;13.340;2022-07-23T04:44:50;17.50;99.90
50067;DHT22;35952;52.524;13.340;2022-07-23T04:47:17;17.30;99.90
50067;DHT22;35952;52.524;13.340;2022-07-23T04:49:43;16.90;99.90
50067;DHT22;35952;52.524;13.340;2022-07-23T04:52:10;16.70;99.90
50067;DHT22;35952;52.524;13.340;2022-07-23T04:54:36;16.60;99.90
50067;DHT22;35952;52.524;13.340;2022-07-23T04:57:01;16.40;99.90
50067;DHT22;35952;52.524;13.340;2022-07-23T04:59:27;16.10;99.90
50067;DHT22;35952;52.524;13.340;2022-07-23T05:01:52;16.00;99.90
50067;DHT22;35952;52.524;13.340;2022-07-23T05:04:18;15.70;99.90
50067;DHT22;35952;52.524;13.340;2022-07-23T05:06:43;15.60;99.90
50067;DHT22;35952;52.524;13.340;2022-07-23T05:09:09;15.80;99.90
50067;DHT22;35952;52.524;13.340;2022-07-23T05:11:34;15.90;99.90
50067;DHT22;35952;52.524;13.340;2022-07-23T05:14:00;16.00;99.90
50067;DHT22;35952;52.524;13.340;2022-07-23T05:16:25;16.00;99.90
50067;DHT22;35952;52.524;13.340;2022-07-23T05:18:51;15.90;99.90
50067;DHT22;35952;52.524;13.340;2022-07-23T05:21:16;15.90;99.90
50067;DHT22;35952;52.524;13.340;2022-07-23T05:23:42;15.70;99.90
50067;DHT22;35952;52.524;13.340;2022-07-23T05:26:07;15.50;99.90
50067;DHT22;35952;52.524;13.340;2022-07-23T05:28:33;15.50;99.90
50067;DHT22;35952;52.524;13.340;2022-07-23T05:30:58;15.40;99.90
50067;DHT22;35952;52.524;13.340;2022-07-23T05:33:24;15.50;99.90
50067;DHT22;35952;52.524;13.340;2022-07-23T05:35:49;15.40;99.90
50067;DHT22;35952;52.524;13.340;2022-07-23T05:38:15;15.40;99.90
50067;DHT22;35952;52.524;13.340;2022-07-23T05:40:40;15.40;99.90
50067;DHT22;35952;52.524;13.340;2022-07-23T05:43:06;15.30;99.90
50067;DHT22;35952;52.524;13.340;2022-07-23T05:45:31;15.30;99.90
50067;DHT22;35952;52.524;13.340;2022-07-23T05:47:57;15.30;99.90
50067;DHT22;35952;52.524;13.340;2022-07-23T05:50:22;15.20;99.90
50067;DHT22;35952;52.524;13.340;2022-07-23T05:52:48;15.30;99.90
50067;DHT22;35952;52.524;13.340;2022-07-23T05:55:13;15.50;99.90
50067;DHT22;35952;52.524;13.340;2022-07-23T05:57:40;15.70;99.90
50067;DHT22;35952;52.524;13.340;2022-07-23T06:00:07;15.70;99.90
50067;DHT22;35952;52.524;13.340;2022-07-23T06:02:33;15.70;99.90
50067;DHT22;35952;52.524;13.340;2022-07-23T06:04:58;15.40;99.90
50067;DHT22;35952;52.524;13.340;2022-07-23T06:07:24;15.50;99.90
50067;DHT22;35952;52.524;13.340;2022-07-23T06:09:50;15.40;99.90
50067;DHT22;35952;52.524;13.340;2022-07-23T06:12:16;15.20;99.90
50067;DHT22;35952;52.524;13.340;2022-07-23T06:14:42;15.40;99.90
50067;DHT22;35952;52.524;13.340;2022-07-23T06:17:08;15.50;99.90
50067;DHT22;35952;52.524;13.340;2022-07-23T06:19:34;15.60;99.90
50067;DHT22;35952;52.524;13.340;2022-07-23T06:21:59;15.50;99.90
50067;DHT22;35952;52.524;13.340;2022-07-23T06:24:25;15.40;99.90
50067;DHT22;35952;52.524;13.340;2022-07-23T06:26:50;15.30;99.90
50067;DHT22;35952;52.524;13.340;2022-07-23T06:29:16;15.30;99.90
50067;DHT22;35952;52.524;13.340;2022-07-23T06:31:41;15.50;99.90
50067;DHT22;35952;52.524;13.340;2022-07-23T06:34:07;15.50;99.90
50067;DHT22;35952;52.524;13.340;2022-07-23T06:36:32;15.30;99.90
50067;DHT22;35952;52.524;13.340;2022-07-23T06:38:58;15.20;99.90
50067;DHT22;35952;52.524;13.340;2022-07-23T06:41:23;15.20;99.90
50067;DHT22;35952;52.524;13.340;2022-07-23T06:43:49;15.20;99.90
50067;DHT22;35952;52.524;13.340;2022-07-23T06:46:15;15.30;99.90
50067;DHT22;35952;52.524;13.340;2022-07-23T06:48:40;15.50;99.90
50067;DHT22;35952;52.524;13.340;2022-07-23T06:51:06;15.70;99.90
50067;DHT22;35952;52.524;13.340;2022-07-23T06:53:31;16.00;99.90
50067;DHT22;35952;52.524;13.340;2022-07-23T06:55:57;15.80;99.90
50067;DHT22;35952;52.524;13.340;2022-07-23T06:58:22;15.70;99.90
50067;DHT22;35952;52.524;13.340;2022-07-23T07:00:48;15.60;99.90
50067;DHT22;35952;52.524;13.340;2022-07-23T07:03:13;15.70;99.90
50067;DHT22;35952;52.524;13.340;2022-07-23T07:05:39;15.70;99.90
50067;DHT22;35952;52.524;13.340;2022-07-23T07:08:07;15.70;99.90
50067;DHT22;35952;52.524;13.340;2022-07-23T07:10:32;15.60;99.90
50067;DHT22;35952;52.524;13.340;2022-07-23T07:12:58;15.70;99.90
50067;DHT22;35952;52.524;13.340;2022-07-23T07:15:24;15.90;99.90
50067;DHT22;35952;52.524;13.340;2022-07-23T07:17:49;15.90;99.90
50067;DHT22;35952;52.524;13.340;2022-07-23T07:20:15;16.00;99.90
50067;DHT22;35952;52.524;13.340;2022-07-23T07:22:40;16.30;99.90
50067;DHT22;35952;52.524;13.340;2022-07-23T07:25:07;16.40;99.90
50067;DHT22;35952;52.524;13.340;2022-07-23T07:27:33;16.40;99.90
50067;DHT22;35952;52.524;13.340;2022-07-23T07:29:58;16.60;99.90
50067;DHT22;35952;52.524;13.340;2022-07-23T07:32:24;16.60;99.90
50067;DHT22;35952;52.524;13.340;2022-07-23T07:34:50;16.60;99.90
50067;DHT22;35952;52.524;13.340;2022-07-23T07:37:16;16.60;99.90
50067;DHT22;35952;52.524;13.340;2022-07-23T07:39:41;17.00;99.90
50067;DHT22;35952;52.524;13.340;2022-07-23T07:42:07;17.10;99.90
50067;DHT22;35952;52.524;13.340;2022-07-23T07:44:32;17.10;99.90
50067;DHT22;35952;52.524;13.340;2022-07-23T07:46:58;17.30;99.90
50067;DHT22;35952;52.524;13.340;2022-07-23T07:49:23;17.30;99.90
50067;DHT22;35952;52.524;13.340;2022-07-23T07:51:49;17.40;99.90
50067;DHT22;35952;52.524;13.340;2022-07-23T07:54:15;17.40;99.90
50067;DHT22;35952;52.524;13.340;2022-07-23T07:56:41;17.30;99.90
50067;DHT22;35952;52.524;13.340;2022-07-23T07:59:06;17.20;99.90
50067;DHT22;35952;52.524;13.340;2022-07-23T08:01:32;17.40;99.90
50067;DHT22;35952;52.524;13.340;2022-07-23T08:03:57;17.60;99.90
50067;DHT22;35952;52.524;13.340;2022-07-23T08:06:23;17.80;99.90
50067;DHT22;35952;52.524;13.340;2022-07-23T08:08:49;17.90;99.90
50067;DHT22;35952;52.524;13.340;2022-07-23T08:11:14;18.20;99.90
50067;DHT22;35952;52.524;13.340;2022-07-23T08:13:40;18.50;99.90
50067;DHT22;35952;52.524;13.340;2022-07-23T08:16:06;18.60;99.90
50067;DHT22;35952;52.524;13.340;2022-07-23T08:18:32;18.90;99.90
50067;DHT22;35952;52.524;13.340;2022-07-23T08:20:57;19.00;99.90
50067;DHT22;35952;52.524;13.340;2022-07-23T08:23:23;19.20;99.90
50067;DHT22;35952;52.524;13.340;2022-07-23T08:25:48;19.30;99.90
50067;DHT22;35952;52.524;13.340;2022-07-23T08:28:15;19.50;99.90
50067;DHT22;35952;52.524;13.340;2022-07-23T08:30:42;19.70;99.90
50067;DHT22;35952;52.524;13.340;2022-07-23T08:33:10;19.60;99.90
50067;DHT22;35952;52.524;13.340;2022-07-23T08:35:41;20.00;99.90
50067;DHT22;35952;52.524;13.340;2022-07-23T08:38:08;20.30;99.90
50067;DHT22;35952;52.524;13.340;2022-07-23T08:40:37;20.50;99.90
50067;DHT22;35952;52.524;13.340;2022-07-23T08:43:08;20.70;99.90
50067;DHT22;35952;52.524;13.340;2022-07-23T08:45:42;20.70;99.90
50067;DHT22;35952;52.524;13.340;2022-07-23T08:48:12;20.70;99.90
50067;DHT22;35952;52.524;13.340;2022-07-23T08:50:38;20.90;99.90
50067;DHT22;35952;52.524;13.340;2022-07-23T08:53:08;20.90;99.90
50067;DHT22;35952;52.524;13.340;2022-07-23T08:55:34;20.90;99.90
50067;DHT22;35952;52.524;13.340;2022-07-23T08:57:59;21.20;99.90
50067;DHT22;35952;52.524;13.340;2022-07-23T09:00:26;21.10;99.90
50067;DHT22;35952;52.524;13.340;2022-07-23T09:02:51;21.00;99.90
50067;DHT22;35952;52.524;13.340;2022-07-23T09:05:18;20.90;99.90
50067;DHT22;35952;52.524;13.340;2022-07-23T09:08:10;21.10;99.90
50067;DHT22;35952;52.524;13.340;2022-07-23T09:10:59;21.30;99.90
50067;DHT22;35952;52.524;13.340;2022-07-23T09:13:42;21.10;99.90
50067;DHT22;35952;52.524;13.340;2022-07-23T09:16:14;21.50;99.90
50067;DHT22;35952;52.524;13.340;2022-07-23T09:18:54;21.30;99.90
50067;DHT22;35952;52.524;13.340;2022-07-23T09:21:23;21.30;99.90
50067;DHT22;35952;52.524;13.340;2022-07-23T09:23:53;21.40;99.90
50067;DHT22;35952;52.524;13.340;2022-07-23T09:26:20;21.60;99.90
50067;DHT22;35952;52.524;13.340;2022-07-23T09:31:34;21.70;99.90
50067;DHT22;35952;52.524;13.340;2022-07-23T09:34:09;21.80;99.90
50067;DHT22;35952;52.524;13.340;2022-07-23T09:36:35;22.00;99.90
50067;DHT22;35952;52.524;13.340;2022-07-23T09:39:00;22.00;99.90
50067;DHT22;35952;52.524;13.340;2022-07-23T09:41:34;22.00;99.90
50067;DHT22;35952;52.524;13.340;2022-07-23T09:44:17;22.20;99.90
50067;DHT22;35952;52.524;13.340;2022-07-23T09:46:47;22.30;99.90
50067;DHT22;35952;52.524;13.340;2022-07-23T09:51:49;23.10;99.90
50067;DHT22;35952;52.524;13.340;2022-07-23T09:54:25;23.20;99.90
50067;DHT22;35952;52.524;13.340;2022-07-23T09:56:53;23.20;99.90
50067;DHT22;35952;52.524;13.340;2022-07-23T09:59:23;23.30;99.90
50067;DHT22;35952;52.524;13.340;2022-07-23T10:01:50;23.30;99.90
50067;DHT22;35952;52.524;13.340;2022-07-23T10:04:17;23.20;99.90
50067;DHT22;35952;52.524;13.340;2022-07-23T10:06:43;23.20;99.90
50067;DHT22;35952;52.524;13.340;2022-07-23T10:09:12;23.10;99.90
50067;DHT22;35952;52.524;13.340;2022-07-23T10:11:41;22.80;99.90
50067;DHT22;35952;52.524;13.340;2022-07-23T10:14:07;22.50;99.90
50067;DHT22;35952;52.524;13.340;2022-07-23T10:16:33;22.40;99.90
50067;DHT22;35952;52.524;13.340;2022-07-23T10:18:59;22.30;99.90
50067;DHT22;35952;52.524;13.340;2022-07-23T10:21:40;22.10;99.90
50067;DHT22;35952;52.524;13.340;2022-07-23T10:27:19;22.10;99.90
50067;DHT22;35952;52.524;13.340;2022-07-23T10:29:51;22.30;99.90
50067;DHT22;35952;52.524;13.340;2022-07-23T10:35:03;22.10;99.90
50067;DHT22;35952;52.524;13.340;2022-07-23T10:37:37;22.10;99.90
50067;DHT22;35952;52.524;13.340;2022-07-23T10:40:19;22.10;99.90
50067;DHT22;35952;52.524;13.340;2022-07-23T10:42:46;22.10;99.90
50067;DHT22;35952;52.524;13.340;2022-07-23T10:45:23;22.10;99.90
50067;DHT22;35952;52.524;13.340;2022-07-23T10:47:50;22.30;99.90
50067;DHT22;35952;52.524;13.340;2022-07-23T10:50:25;22.60;99.90
50067;DHT22;35952;52.524;13.340;2022-07-23T10:57:59;23.20;99.90
50067;DHT22;35952;52.524;13.340;2022-07-23T11:00:29;23.40;99.90
50067;DHT22;35952;52.524;13.340;2022-07-23T11:02:59;23.40;99.90
50067;DHT22;35952;52.524;13.340;2022-07-23T11:05:39;23.40;99.90
50067;DHT22;35952;52.524;13.340;2022-07-23T11:10:39;23.70;99.90
50067;DHT22;35952;52.524;13.340;2022-07-23T11:24:05;24.30;98.80
50067;DHT22;35952;52.524;13.340;2022-07-23T11:32:36;23.70;98.90
50067;DHT22;35952;52.524;13.340;2022-07-23T11:34:44;23.50;99.30
50067;DHT22;35952;52.524;13.340;2022-07-23T11:37:36;23.40;98.40
50067;DHT22;35952;52.524;13.340;2022-07-23T11:40:08;23.30;99.50
50067;DHT22;35952;52.524;13.340;2022-07-23T11:42:39;23.30;99.90
50067;DHT22;35952;52.524;13.340;2022-07-23T11:45:07;23.20;99.90
50067;DHT22;35952;52.524;13.340;2022-07-23T11:47:33;23.20;99.90
50067;DHT22;35952;52.524;13.340;2022-07-23T11:50:01;23.10;99.90
50067;DHT22;35952;52.524;13.340;2022-07-23T11:52:27;23.30;99.50
50067;DHT22;35952;52.524;13.340;2022-07-23T11:54:58;23.40;98.60
50067;DHT22;35952;52.524;13.340;2022-07-23T11:57:26;23.60;99.30
50067;DHT22;35952;52.524;13.340;2022-07-23T11:59:57;23.90;99.40
50067;DHT22;35952;52.524;13.340;2022-07-23T12:02:23;24.10;97.90
50067;DHT22;35952;52.524;13.340;2022-07-23T12:04:51;24.30;97.70
50067;DHT22;35952;52.524;13.340;2022-07-23T12:07:39;24.40;97.10
50067;DHT22;35952;52.524;13.340;2022-07-23T12:10:10;24.40;96.60
50067;DHT22;35952;52.524;13.340;2022-07-23T12:12:56;24.20;95.80
50067;DHT22;35952;52.524;13.340;2022-07-23T12:15:27;24.20;97.30
50067;DHT22;35952;52.524;13.340;2022-07-23T12:17:55;24.10;96.60
50067;DHT22;35952;52.524;13.340;2022-07-23T12:20:23;24.20;95.40
50067;DHT22;35952;52.524;13.340;2022-07-23T12:22:51;24.10;94.70
50067;DHT22;35952;52.524;13.340;2022-07-23T12:25:20;24.10;95.00
50067;DHT22;35952;52.524;13.340;2022-07-23T12:27:46;24.10;95.50
50067;DHT22;35952;52.524;13.340;2022-07-23T12:30:37;24.10;95.50
50067;DHT22;35952;52.524;13.340;2022-07-23T12:33:04;24.10;95.00
50067;DHT22;35952;52.524;13.340;2022-07-23T12:35:41;24.00;95.60
50067;DHT22;35952;52.524;13.340;2022-07-23T12:38:18;24.10;95.40
50067;DHT22;35952;52.524;13.340;2022-07-23T12:40:56;24.10;94.60
50067;DHT22;35952;52.524;13.340;2022-07-23T12:46:11;24.40;94.50
50067;DHT22;35952;52.524;13.340;2022-07-23T12:48:39;24.40;93.00
50067;DHT22;35952;52.524;13.340;2022-07-23T12:51:12;24.50;94.70
50067;DHT22;35952;52.524;13.340;2022-07-23T12:53:45;24.60;93.50
50067;DHT22;35952;52.524;13.340;2022-07-23T12:56:13;24.70;92.60
50067;DHT22;35952;52.524;13.340;2022-07-23T12:58:51;24.80;93.60
50067;DHT22;35952;52.524;13.340;2022-07-23T13:03:58;24.60;92.90
50067;DHT22;35952;52.524;13.340;2022-07-23T13:06:32;24.60;93.10
50067;DHT22;35952;52.524;13.340;2022-07-23T13:08:58;24.50;93.10
50067;DHT22;35952;52.524;13.340;2022-07-23T13:11:24;24.40;92.70
50067;DHT22;35952;52.524;13.340;2022-07-23T13:13:50;24.40;93.20
50067;DHT22;35952;52.524;13.340;2022-07-23T13:16:15;24.40;92.00
50067;DHT22;35952;52.524;13.340;2022-07-23T13:18:41;24.50;93.20
50067;DHT22;35952;52.524;13.340;2022-07-23T13:21:07;24.60;93.90
50067;DHT22;35952;52.524;13.340;2022-07-23T13:23:33;24.70;92.00
50067;DHT22;35952;52.524;13.340;2022-07-23T13:25:58;25.00;93.30
50067;DHT22;35952;52.524;13.340;2022-07-23T13:28:24;25.20;92.20
50067;DHT22;35952;52.524;13.340;2022-07-23T13:30:50;25.40;91.90
50067;DHT22;35952;52.524;13.340;2022-07-23T13:33:18;25.10;91.30
50067;DHT22;35952;52.524;13.340;2022-07-23T13:35:44;24.90;89.30
50067;DHT22;35952;52.524;13.340;2022-07-23T13:38:10;24.70;90.40
50067;DHT22;35952;52.524;13.340;2022-07-23T13:40:39;24.60;91.30
50067;DHT22;35952;52.524;13.340;2022-07-23T13:43:06;24.60;91.00
50067;DHT22;35952;52.524;13.340;2022-07-23T13:45:32;24.50;90.80
50067;DHT22;35952;52.524;13.340;2022-07-23T13:47:58;24.40;90.00
50067;DHT22;35952;52.524;13.340;2022-07-23T13:50:24;24.30;90.40
50067;DHT22;35952;52.524;13.340;2022-07-23T13:52:50;24.20;90.20
50067;DHT22;35952;52.524;13.340;2022-07-23T13:55:15;24.10;90.80
50067;DHT22;35952;52.524;13.340;2022-07-23T13:57:41;24.00;91.10
50067;DHT22;35952;52.524;13.340;2022-07-23T14:00:08;24.20;89.90
50067;DHT22;35952;52.524;13.340;2022-07-23T14:02:36;24.60;91.10
50067;DHT22;35952;52.524;13.340;2022-07-23T14:05:03;25.10;90.00
50067;DHT22;35952;52.524;13.340;2022-07-23T14:07:29;25.80;86.50
50067;DHT22;35952;52.524;13.340;2022-07-23T14:09:55;26.00;84.20
50067;DHT22;35952;52.524;13.340;2022-07-23T14:12:20;25.80;83.50
50067;DHT22;35952;52.524;13.340;2022-07-23T14:14:46;25.60;85.50
50067;DHT22;35952;52.524;13.340;2022-07-23T14:17:11;26.50;79.90
50067;DHT22;35952;52.524;13.340;2022-07-23T14:19:37;27.80;76.00
50067;DHT22;35952;52.524;13.340;2022-07-23T14:22:02;27.70;73.00
50067;DHT22;35952;52.524;13.340;2022-07-23T14:24:28;27.20;74.60
50067;DHT22;35952;52.524;13.340;2022-07-23T14:26:54;26.60;74.70
50067;DHT22;35952;52.524;13.340;2022-07-23T14:29:20;26.10;75.80
50067;DHT22;35952;52.524;13.340;2022-07-23T14:31:45;25.70;77.30
50067;DHT22;35952;52.524;13.340;2022-07-23T14:34:11;25.20;77.10
50067;DHT22;35952;52.524;13.340;2022-07-23T14:36:37;25.00;79.60
50067;DHT22;35952;52.524;13.340;2022-07-23T14:39:03;24.70;83.80
50067;DHT22;35952;52.524;13.340;2022-07-23T14:41:29;24.60;82.00
50067;DHT22;35952;52.524;13.340;2022-07-23T14:43:54;24.50;81.50
50067;DHT22;35952;52.524;13.340;2022-07-23T14:46:21;24.40;79.90
50067;DHT22;35952;52.524;13.340;2022-07-23T14:48:46;24.30;79.60
50067;DHT22;35952;52.524;13.340;2022-07-23T14:51:12;24.60;80.10
50067;DHT22;35952;52.524;13.340;2022-07-23T14:53:38;24.60;77.80
50067;DHT22;35952;52.524;13.340;2022-07-23T14:56:04;24.80;78.50
50067;DHT22;35952;52.524;13.340;2022-07-23T14:58:30;24.90;78.10
50067;DHT22;35952;52.524;13.340;2022-07-23T15:00:56;25.10;77.00
50067;DHT22;35952;52.524;13.340;2022-07-23T15:03:21;25.30;76.00
50067;DHT22;35952;52.524;13.340;2022-07-23T15:05:47;25.40;75.40
50067;DHT22;35952;52.524;13.340;2022-07-23T15:08:13;25.20;74.20
50067;DHT22;35952;52.524;13.340;2022-07-23T15:10:39;25.00;74.90
50067;DHT22;35952;52.524;13.340;2022-07-23T15:13:04;24.80;75.80
50067;DHT22;35952;52.524;13.340;2022-07-23T15:15:30;24.80;74.80
50067;DHT22;35952;52.524;13.340;2022-07-23T15:17:56;24.80;76.10
50067;DHT22;35952;52.524;13.340;2022-07-23T15:20:21;24.90;75.50
50067;DHT22;35952;52.524;13.340;2022-07-23T15:22:47;24.90;75.10
50067;DHT22;35952;52.524;13.340;2022-07-23T15:25:13;25.00;74.90
50067;DHT22;35952;52.524;13.340;2022-07-23T15:27:39;25.00;73.30
50067;DHT22;35952;52.524;13.340;2022-07-23T15:30:06;25.10;72.50
50067;DHT22;35952;52.524;13.340;2022-07-23T15:32:32;25.10;72.70
50067;DHT22;35952;52.524;13.340;2022-07-23T15:34:58;25.10;73.30
50067;DHT22;35952;52.524;13.340;2022-07-23T15:37:23;25.00;72.00
50067;DHT22;35952;52.524;13.340;2022-07-23T15:39:50;25.00;72.80
50067;DHT22;35952;52.524;13.340;2022-07-23T15:42:16;24.90;73.20
50067;DHT22;35952;52.524;13.340;2022-07-23T15:44:42;24.90;72.10
50067;DHT22;35952;52.524;13.340;2022-07-23T15:47:14;24.80;72.30
50067;DHT22;35952;52.524;13.340;2022-07-23T15:49:40;24.60;72.80
50067;DHT22;35952;52.524;13.340;2022-07-23T15:52:06;24.60;72.80
50067;DHT22;35952;52.524;13.340;2022-07-23T15:54:32;24.60;72.60
50067;DHT22;35952;52.524;13.340;2022-07-23T15:56:57;24.60;71.10